sensor_id;sensor_type;location;lat;lon;timestamp;temperature;humidity
16732;DHT22;8484;50.904;9.192;2023-02-28T00:00:25;0.20;99.90
16732;DHT22;8484;50.904;9.192;2023-02-28T00:02:51;0.20;99.90
16732;DHT22;8484;50.904;9.192;2023-02-28T00:05:21;0.20;99.90
16732;DHT22;8484;50.904;9.192;2023-02-28T00:07:49;0.10;99.90
16732;DHT22;8484;50.904;9.192;2023-02-28T00:10:17;0.10;99.90
16732;DHT22;8484;50.904;9.192;2023-02-28T00:12:46;0.10;99.90
16732;DHT22;8484;50.904;9.192;2023-02-28T00:15:13;0.00;99.90
16732;DHT22;8484;50.904;9.192;2023-02-28T00:17:40;0.00;99.90
16732;DHT22;8484;50.904;9.192;2023-02-28T00:20:08;-0.10;99.90
16732;DHT22;8484;50.904;9.192;2023-02-28T00:22:38;0.00;99.90
16732;DHT22;8484;50.904;9.192;2023-02-28T00:25:06;0.00;99.90
16732;DHT22;8484;50.904;9.192;2023-02-28T00:27:33;-0.10;99.90
16732;DHT22;8484;50.904;9.192;2023-02-28T00:30:00;-0.10;99.90
16732;DHT22;8484;50.904;9.192;2023-02-28T00:32:27;-0.10;99.90
16732;DHT22;8484;50.904;9.192;2023-02-28T00:34:55;-0.20;99.90
16732;DHT22;8484;50.904;9.192;2023-02-28T00:37:22;-0.20;99.90
16732;DHT22;8484;50.904;9.192;2023-02-28T00:39:50;-0.30;99.90
16732;DHT22;8484;50.904;9.192;2023-02-28T00:42:17;-0.30;99.90
16732;DHT22;8484;50.904;9.192;2023-02-28T00:44:44;-0.40;99.90
16732;DHT22;8484;50.904;9.192;2023-02-28T00:47:11;-0.40;99.90
16732;DHT22;8484;50.904;9.192;2023-02-28T00:49:37;-0.40;99.90
16732;DHT22;8484;50.904;9.192;2023-02-28T00:52:04;-0.50;99.90
16732;DHT22;8484;50.904;9.192;2023-02-28T00:54:31;-0.50;99.90
16732;DHT22;8484;50.904;9.192;2023-02-28T00:56:59;-0.40;99.90
16732;DHT22;8484;50.904;9.192;2023-02-28T00:59:26;-0.50;99.90
16732;DHT22;8484;50.904;9.192;2023-02-28T01:01:53;-0.60;99.90
16732;DHT22;8484;50.904;9.192;2023-02-28T01:04:20;-0.60;99.90
16732;DHT22;8484;50.904;9.192;2023-02-28T01:06:47;-0.50;99.90
16732;DHT22;8484;50.904;9.192;2023-02-28T01:09:14;-0.40;99.90
16732;DHT22;8484;50.904;9.192;2023-02-28T01:11:41;-0.40;99.90
16732;DHT22;8484;50.904;9.192;2023-02-28T01:14:11;-0.40;99.90
16732;DHT22;8484;50.904;9.192;2023-02-28T01:16:38;-0.40;99.90
16732;DHT22;8484;50.904;9.192;2023-02-28T01:19:05;-0.40;99.90
16732;DHT22;8484;50.904;9.192;2023-02-28T01:21:32;-0.40;99.90
16732;DHT22;8484;50.904;9.192;2023-02-28T01:24:00;-0.30;99.90
16732;DHT22;8484;50.904;9.192;2023-02-28T01:26:27;-0.30;99.90
16732;DHT22;8484;50.904;9.192;2023-02-28T01:28:55;-0.30;99.90
16732;DHT22;8484;50.904;9.192;2023-02-28T01:31:23;-0.20;99.90
16732;DHT22;8484;50.904;9.192;2023-02-28T01:33:51;-0.30;99.90
16732;DHT22;8484;50.904;9.192;2023-02-28T01:36:20;-0.30;99.90
16732;DHT22;8484;50.904;9.192;2023-02-28T01:38:47;-0.20;99.90
16732;DHT22;8484;50.904;9.192;2023-02-28T01:41:18;-0.20;99.90
16732;DHT22;8484;50.904;9.192;2023-02-28T01:43:57;-0.30;99.90
16732;DHT22;8484;50.904;9.192;2023-02-28T01:46:25;-0.20;99.90
16732;DHT22;8484;50.904;9.192;2023-02-28T01:48:56;-0.20;99.90
16732;DHT22;8484;50.904;9.192;2023-02-28T01:51:28;-0.30;99.90
16732;DHT22;8484;50.904;9.192;2023-02-28T01:53:58;-0.30;99.90
16732;DHT22;8484;50.904;9.192;2023-02-28T01:56:29;-0.30;99.90
16732;DHT22;8484;50.904;9.192;2023-02-28T01:58:57;-0.30;99.90
16732;DHT22;8484;50.904;9.192;2023-02-28T02:01:27;-0.40;99.90
16732;DHT22;8484;50.904;9.192;2023-02-28T02:03:56;-0.50;99.90
16732;DHT22;8484;50.904;9.192;2023-02-28T02:06:25;-0.40;99.90
16732;DHT22;8484;50.904;9.192;2023-02-28T02:08:54;-0.40;99.90
16732;DHT22;8484;50.904;9.192;2023-02-28T02:11:22;-0.40;99.90
16732;DHT22;8484;50.904;9.192;2023-02-28T02:14:17;-0.50;99.90
16732;DHT22;8484;50.904;9.192;2023-02-28T02:17:00;-0.50;99.90
16732;DHT22;8484;50.904;9.192;2023-02-28T02:19:53;-0.50;99.90
16732;DHT22;8484;50.904;9.192;2023-02-28T02:22:58;-0.60;99.90
16732;DHT22;8484;50.904;9.192;2023-02-28T02:25:35;-0.60;99.90
16732;DHT22;8484;50.904;9.192;2023-02-28T02:28:34;-0.60;99.90
16732;DHT22;8484;50.904;9.192;2023-02-28T02:34:36;-0.70;99.90
16732;DHT22;8484;50.904;9.192;2023-02-28T02:37:14;-0.70;99.90
16732;DHT22;8484;50.904;9.192;2023-02-28T02:39:48;-0.80;99.90
16732;DHT22;8484;50.904;9.192;2023-02-28T02:42:21;-0.80;99.90
16732;DHT22;8484;50.904;9.192;2023-02-28T02:44:53;-0.70;99.90
16732;DHT22;8484;50.904;9.192;2023-02-28T02:47:24;-0.80;99.90
16732;DHT22;8484;50.904;9.192;2023-02-28T02:49:55;-0.80;99.90
16732;DHT22;8484;50.904;9.192;2023-02-28T02:52:29;-0.80;99.90
16732;DHT22;8484;50.904;9.192;2023-02-28T02:54:59;-0.90;99.90
16732;DHT22;8484;50.904;9.192;2023-02-28T02:57:30;-0.90;99.90
16732;DHT22;8484;50.904;9.192;2023-02-28T02:59:59;-0.90;99.90
16732;DHT22;8484;50.904;9.192;2023-02-28T03:02:29;-0.80;99.90
16732;DHT22;8484;50.904;9.192;2023-02-28T03:05:04;-0.80;99.90
16732;DHT22;8484;50.904;9.192;2023-02-28T03:07:32;-1.00;99.90
16732;DHT22;8484;50.904;9.192;2023-02-28T03:09:59;-0.90;99.90
16732;DHT22;8484;50.904;9.192;2023-02-28T03:12:32;-1.00;99.90
16732;DHT22;8484;50.904;9.192;2023-02-28T03:15:07;-1.00;99.90
16732;DHT22;8484;50.904;9.192;2023-02-28T03:17:48;-1.00;99.90
16732;DHT22;8484;50.904;9.192;2023-02-28T03:20:27;-1.00;99.90
16732;DHT22;8484;50.904;9.192;2023-02-28T03:23:03;-0.90;99.90
16732;DHT22;8484;50.904;9.192;2023-02-28T03:25:37;-0.90;99.90
16732;DHT22;8484;50.904;9.192;2023-02-28T03:28:09;-0.80;99.90
16732;DHT22;8484;50.904;9.192;2023-02-28T03:30:45;-0.80;99.90
16732;DHT22;8484;50.904;9.192;2023-02-28T03:33:21;-0.80;99.90
16732;DHT22;8484;50.904;9.192;2023-02-28T03:35:54;-0.70;99.90
16732;DHT22;8484;50.904;9.192;2023-02-28T03:38:27;-0.70;99.90
16732;DHT22;8484;50.904;9.192;2023-02-28T03:41:00;-0.60;99.90
16732;DHT22;8484;50.904;9.192;2023-02-28T03:43:29;-0.60;99.90
16732;DHT22;8484;50.904;9.192;2023-02-28T03:45:57;-0.60;99.90
16732;DHT22;8484;50.904;9.192;2023-02-28T03:48:30;-0.60;99.90
16732;DHT22;8484;50.904;9.192;2023-02-28T03:51:00;-0.50;99.90
16732;DHT22;8484;50.904;9.192;2023-02-28T03:53:32;-0.50;99.90
16732;DHT22;8484;50.904;9.192;2023-02-28T03:56:05;-0.50;99.90
16732;DHT22;8484;50.904;9.192;2023-02-28T03:58:37;-0.50;99.90
16732;DHT22;8484;50.904;9.192;2023-02-28T04:01:07;-0.40;99.90
16732;DHT22;8484;50.904;9.192;2023-02-28T04:03:36;-0.40;99.90
16732;DHT22;8484;50.904;9.192;2023-02-28T04:06:06;-0.40;99.90
16732;DHT22;8484;50.904;9.192;2023-02-28T04:08:34;-0.60;99.90
16732;DHT22;8484;50.904;9.192;2023-02-28T04:11:04;-0.50;99.90
16732;DHT22;8484;50.904;9.192;2023-02-28T04:13:33;-0.40;99.90
16732;DHT22;8484;50.904;9.192;2023-02-28T04:16:00;-0.50;99.90
16732;DHT22;8484;50.904;9.192;2023-02-28T04:18:26;-0.40;99.90
16732;DHT22;8484;50.904;9.192;2023-02-28T04:20:53;-0.40;99.90
16732;DHT22;8484;50.904;9.192;2023-02-28T04:23:21;-0.50;99.90
16732;DHT22;8484;50.904;9.192;2023-02-28T04:25:48;-0.50;99.90
16732;DHT22;8484;50.904;9.192;2023-02-28T04:28:16;-0.50;99.90
16732;DHT22;8484;50.904;9.192;2023-02-28T04:30:43;-0.50;99.90
16732;DHT22;8484;50.904;9.192;2023-02-28T04:33:10;-0.50;99.90
16732;DHT22;8484;50.904;9.192;2023-02-28T04:35:37;-0.50;99.90
16732;DHT22;8484;50.904;9.192;2023-02-28T04:38:04;-0.50;99.90
16732;DHT22;8484;50.904;9.192;2023-02-28T04:40:32;-0.50;99.90
16732;DHT22;8484;50.904;9.192;2023-02-28T04:42:59;-0.50;99.90
16732;DHT22;8484;50.904;9.192;2023-02-28T04:45:25;-0.50;99.90
16732;DHT22;8484;50.904;9.192;2023-02-28T04:47:55;-0.40;99.90
16732;DHT22;8484;50.904;9.192;2023-02-28T04:50:22;-0.40;99.90
16732;DHT22;8484;50.904;9.192;2023-02-28T04:52:49;-0.40;99.90
16732;DHT22;8484;50.904;9.192;2023-02-28T04:55:16;-0.40;99.90
16732;DHT22;8484;50.904;9.192;2023-02-28T04:57:44;-0.40;99.90
16732;DHT22;8484;50.904;9.192;2023-02-28T05:00:11;-0.50;99.90
16732;DHT22;8484;50.904;9.192;2023-02-28T05:02:42;-0.50;99.90
16732;DHT22;8484;50.904;9.192;2023-02-28T05:05:08;-0.50;99.90
16732;DHT22;8484;50.904;9.192;2023-02-28T05:07:35;-0.40;99.90
16732;DHT22;8484;50.904;9.192;2023-02-28T05:10:02;-0.40;99.90
16732;DHT22;8484;50.904;9.192;2023-02-28T05:12:29;-0.50;99.90
16732;DHT22;8484;50.904;9.192;2023-02-28T05:14:59;-0.50;99.90
16732;DHT22;8484;50.904;9.192;2023-02-28T05:17:27;-0.50;99.90
16732;DHT22;8484;50.904;9.192;2023-02-28T05:19:54;-0.40;99.90
16732;DHT22;8484;50.904;9.192;2023-02-28T05:22:21;-0.40;99.90
16732;DHT22;8484;50.904;9.192;2023-02-28T05:24:47;-0.40;99.90
16732;DHT22;8484;50.904;9.192;2023-02-28T05:27:14;-0.40;99.90
16732;DHT22;8484;50.904;9.192;2023-02-28T05:29:41;-0.40;99.90
16732;DHT22;8484;50.904;9.192;2023-02-28T05:32:12;-0.40;99.90
16732;DHT22;8484;50.904;9.192;2023-02-28T05:34:39;-0.40;99.90
16732;DHT22;8484;50.904;9.192;2023-02-28T05:37:08;-0.30;99.90
16732;DHT22;8484;50.904;9.192;2023-02-28T05:39:37;-0.30;99.90
16732;DHT22;8484;50.904;9.192;2023-02-28T05:42:05;-0.30;99.90
16732;DHT22;8484;50.904;9.192;2023-02-28T05:44:32;-0.30;99.90
16732;DHT22;8484;50.904;9.192;2023-02-28T05:46:58;-0.30;99.90
16732;DHT22;8484;50.904;9.192;2023-02-28T05:49:29;-0.30;99.90
16732;DHT22;8484;50.904;9.192;2023-02-28T05:51:56;-0.30;99.90
16732;DHT22;8484;50.904;9.192;2023-02-28T05:54:24;-0.30;99.90
16732;DHT22;8484;50.904;9.192;2023-02-28T05:56:50;-0.20;99.90
16732;DHT22;8484;50.904;9.192;2023-02-28T05:59:17;-0.30;99.90
16732;DHT22;8484;50.904;9.192;2023-02-28T06:01:45;-0.30;99.90
16732;DHT22;8484;50.904;9.192;2023-02-28T06:04:16;-0.30;99.90
16732;DHT22;8484;50.904;9.192;2023-02-28T06:06:46;-0.30;99.90
16732;DHT22;8484;50.904;9.192;2023-02-28T06:09:13;-0.40;99.90
16732;DHT22;8484;50.904;9.192;2023-02-28T06:11:40;-0.30;99.90
16732;DHT22;8484;50.904;9.192;2023-02-28T06:14:09;-0.40;99.90
16732;DHT22;8484;50.904;9.192;2023-02-28T06:16:39;-0.30;99.90
16732;DHT22;8484;50.904;9.192;2023-02-28T06:19:06;-0.30;99.90
16732;DHT22;8484;50.904;9.192;2023-02-28T06:21:33;-0.20;99.90
16732;DHT22;8484;50.904;9.192;2023-02-28T06:24:02;-0.30;99.90
16732;DHT22;8484;50.904;9.192;2023-02-28T06:26:29;-0.30;99.90
16732;DHT22;8484;50.904;9.192;2023-02-28T06:28:56;-0.20;99.90
16732;DHT22;8484;50.904;9.192;2023-02-28T06:31:23;-0.10;99.90
16732;DHT22;8484;50.904;9.192;2023-02-28T06:33:51;-0.10;99.90
16732;DHT22;8484;50.904;9.192;2023-02-28T06:36:18;-0.10;99.90
16732;DHT22;8484;50.904;9.192;2023-02-28T06:38:45;0.00;99.90
16732;DHT22;8484;50.904;9.192;2023-02-28T06:41:18;-0.10;99.90
16732;DHT22;8484;50.904;9.192;2023-02-28T06:43:45;-0.10;99.90
16732;DHT22;8484;50.904;9.192;2023-02-28T06:46:13;-0.10;99.90
16732;DHT22;8484;50.904;9.192;2023-02-28T06:48:40;-0.10;99.90
16732;DHT22;8484;50.904;9.192;2023-02-28T06:51:10;-0.10;99.90
16732;DHT22;8484;50.904;9.192;2023-02-28T06:53:37;0.20;99.90
16732;DHT22;8484;50.904;9.192;2023-02-28T06:56:05;0.30;99.90
16732;DHT22;8484;50.904;9.192;2023-02-28T06:58:34;0.40;99.90
16732;DHT22;8484;50.904;9.192;2023-02-28T07:01:01;0.50;99.90
16732;DHT22;8484;50.904;9.192;2023-02-28T07:03:28;0.60;99.90
16732;DHT22;8484;50.904;9.192;2023-02-28T07:05:55;0.80;99.90
16732;DHT22;8484;50.904;9.192;2023-02-28T07:08:22;1.00;99.90
16732;DHT22;8484;50.904;9.192;2023-02-28T07:10:52;1.10;99.90
16732;DHT22;8484;50.904;9.192;2023-02-28T07:13:19;1.10;99.90
16732;DHT22;8484;50.904;9.192;2023-02-28T07:15:54;1.50;99.90
16732;DHT22;8484;50.904;9.192;2023-02-28T07:18:21;1.40;99.90
16732;DHT22;8484;50.904;9.192;2023-02-28T07:20:49;1.60;99.90
16732;DHT22;8484;50.904;9.192;2023-02-28T07:23:16;1.80;99.90
16732;DHT22;8484;50.904;9.192;2023-02-28T07:25:43;2.10;99.90
16732;DHT22;8484;50.904;9.192;2023-02-28T07:28:11;2.20;99.90
16732;DHT22;8484;50.904;9.192;2023-02-28T07:30:38;2.20;99.90
16732;DHT22;8484;50.904;9.192;2023-02-28T07:33:07;2.20;99.90
16732;DHT22;8484;50.904;9.192;2023-02-28T07:35:33;2.30;99.90
16732;DHT22;8484;50.904;9.192;2023-02-28T07:38:01;2.30;99.90
16732;DHT22;8484;50.904;9.192;2023-02-28T07:40:28;2.50;99.90
16732;DHT22;8484;50.904;9.192;2023-02-28T07:42:55;2.80;99.90
16732;DHT22;8484;50.904;9.192;2023-02-28T07:45:22;2.90;99.90
16732;DHT22;8484;50.904;9.192;2023-02-28T07:47:48;2.70;99.90
16732;DHT22;8484;50.904;9.192;2023-02-28T07:50:17;2.90;99.90
16732;DHT22;8484;50.904;9.192;2023-02-28T07:52:43;3.10;99.90
16732;DHT22;8484;50.904;9.192;2023-02-28T07:55:10;3.30;99.90
16732;DHT22;8484;50.904;9.192;2023-02-28T07:57:39;3.50;99.90
16732;DHT22;8484;50.904;9.192;2023-02-28T08:00:08;3.50;99.90
16732;DHT22;8484;50.904;9.192;2023-02-28T08:02:35;3.20;99.90
16732;DHT22;8484;50.904;9.192;2023-02-28T08:05:03;3.20;99.90
16732;DHT22;8484;50.904;9.192;2023-02-28T08:07:32;3.20;99.90
16732;DHT22;8484;50.904;9.192;2023-02-28T08:09:59;3.30;99.90
16732;DHT22;8484;50.904;9.192;2023-02-28T08:12:26;3.30;99.90
16732;DHT22;8484;50.904;9.192;2023-02-28T08:14:52;3.60;99.90
16732;DHT22;8484;50.904;9.192;2023-02-28T08:17:19;3.70;99.90
16732;DHT22;8484;50.904;9.192;2023-02-28T08:19:46;3.60;99.90
16732;DHT22;8484;50.904;9.192;2023-02-28T08:22:13;3.80;99.90
16732;DHT22;8484;50.904;9.192;2023-02-28T08:24:42;4.10;99.90
16732;DHT22;8484;50.904;9.192;2023-02-28T08:27:10;4.20;99.90
16732;DHT22;8484;50.904;9.192;2023-02-28T08:29:37;4.30;99.90
16732;DHT22;8484;50.904;9.192;2023-02-28T08:32:04;4.70;99.90
16732;DHT22;8484;50.904;9.192;2023-02-28T08:34:31;4.70;99.90
16732;DHT22;8484;50.904;9.192;2023-02-28T08:36:58;4.80;99.90
16732;DHT22;8484;50.904;9.192;2023-02-28T08:39:28;4.30;99.90
16732;DHT22;8484;50.904;9.192;2023-02-28T08:41:56;5.00;99.90
16732;DHT22;8484;50.904;9.192;2023-02-28T08:44:23;5.30;99.90
16732;DHT22;8484;50.904;9.192;2023-02-28T08:46:50;5.50;99.90
16732;DHT22;8484;50.904;9.192;2023-02-28T08:49:16;4.20;99.90
16732;DHT22;8484;50.904;9.192;2023-02-28T08:51:44;4.30;99.90
16732;DHT22;8484;50.904;9.192;2023-02-28T08:54:11;5.00;99.90
16732;DHT22;8484;50.904;9.192;2023-02-28T08:56:40;4.80;99.90
16732;DHT22;8484;50.904;9.192;2023-02-28T08:59:09;5.70;99.90
16732;DHT22;8484;50.904;9.192;2023-02-28T09:01:36;5.80;99.90
16732;DHT22;8484;50.904;9.192;2023-02-28T09:04:03;6.10;99.90
16732;DHT22;8484;50.904;9.192;2023-02-28T09:06:30;6.20;99.90
16732;DHT22;8484;50.904;9.192;2023-02-28T09:08:58;6.60;99.90
16732;DHT22;8484;50.904;9.192;2023-02-28T09:11:27;5.80;99.90
16732;DHT22;8484;50.904;9.192;2023-02-28T09:13:54;5.60;99.70
16732;DHT22;8484;50.904;9.192;2023-02-28T09:16:23;6.00;99.50
16732;DHT22;8484;50.904;9.192;2023-02-28T09:18:50;5.70;99.60
16732;DHT22;8484;50.904;9.192;2023-02-28T09:21:18;5.30;99.10
16732;DHT22;8484;50.904;9.192;2023-02-28T09:23:47;5.80;99.40
16732;DHT22;8484;50.904;9.192;2023-02-28T09:26:15;6.00;99.50
16732;DHT22;8484;50.904;9.192;2023-02-28T09:28:42;5.90;99.30
16732;DHT22;8484;50.904;9.192;2023-02-28T09:31:12;5.40;99.00
16732;DHT22;8484;50.904;9.192;2023-02-28T09:33:41;4.00;99.90
16732;DHT22;8484;50.904;9.192;2023-02-28T09:36:08;5.20;99.10
16732;DHT22;8484;50.904;9.192;2023-02-28T09:38:35;5.20;99.50
16732;DHT22;8484;50.904;9.192;2023-02-28T09:41:04;5.40;99.90
16732;DHT22;8484;50.904;9.192;2023-02-28T09:43:34;3.60;99.90
16732;DHT22;8484;50.904;9.192;2023-02-28T09:46:06;3.00;99.90
16732;DHT22;8484;50.904;9.192;2023-02-28T09:48:41;2.60;99.90
16732;DHT22;8484;50.904;9.192;2023-02-28T09:51:16;3.10;99.90
16732;DHT22;8484;50.904;9.192;2023-02-28T09:53:49;2.80;99.90
16732;DHT22;8484;50.904;9.192;2023-02-28T09:56:21;3.90;99.90
16732;DHT22;8484;50.904;9.192;2023-02-28T09:58:54;3.30;99.90
16732;DHT22;8484;50.904;9.192;2023-02-28T10:01:27;3.80;99.90
16732;DHT22;8484;50.904;9.192;2023-02-28T10:04:01;5.50;99.90
16732;DHT22;8484;50.904;9.192;2023-02-28T10:06:33;4.60;99.90
16732;DHT22;8484;50.904;9.192;2023-02-28T10:09:05;3.60;99.90
16732;DHT22;8484;50.904;9.192;2023-02-28T10:11:36;3.50;99.90
16732;DHT22;8484;50.904;9.192;2023-02-28T10:14:11;3.50;99.90
16732;DHT22;8484;50.904;9.192;2023-02-28T10:16:43;3.30;99.90
16732;DHT22;8484;50.904;9.192;2023-02-28T10:19:17;3.10;99.90
16732;DHT22;8484;50.904;9.192;2023-02-28T10:21:49;4.50;99.90
16732;DHT22;8484;50.904;9.192;2023-02-28T10:24:28;6.00;99.90
16732;DHT22;8484;50.904;9.192;2023-02-28T10:27:00;6.60;99.90
16732;DHT22;8484;50.904;9.192;2023-02-28T10:29:31;7.50;98.70
16732;DHT22;8484;50.904;9.192;2023-02-28T10:32:01;6.50;99.70
16732;DHT22;8484;50.904;9.192;2023-02-28T10:34:29;6.40;99.60
16732;DHT22;8484;50.904;9.192;2023-02-28T10:36:58;7.20;98.20
16732;DHT22;8484;50.904;9.192;2023-02-28T10:39:41;5.80;99.50
16732;DHT22;8484;50.904;9.192;2023-02-28T10:42:25;4.90;99.90
16732;DHT22;8484;50.904;9.192;2023-02-28T10:45:06;4.00;99.90
16732;DHT22;8484;50.904;9.192;2023-02-28T10:47:35;4.60;99.90
16732;DHT22;8484;50.904;9.192;2023-02-28T10:50:26;3.90;99.90
16732;DHT22;8484;50.904;9.192;2023-02-28T10:52:53;3.50;99.90
16732;DHT22;8484;50.904;9.192;2023-02-28T10:55:23;3.10;99.90
16732;DHT22;8484;50.904;9.192;2023-02-28T10:57:51;3.10;99.90
16732;DHT22;8484;50.904;9.192;2023-02-28T11:00:20;2.70;99.90
16732;DHT22;8484;50.904;9.192;2023-02-28T11:02:47;2.40;99.90
16732;DHT22;8484;50.904;9.192;2023-02-28T11:05:27;2.80;99.90
16732;DHT22;8484;50.904;9.192;2023-02-28T11:07:56;4.40;99.90
16732;DHT22;8484;50.904;9.192;2023-02-28T11:10:26;5.00;99.90
16732;DHT22;8484;50.904;9.192;2023-02-28T11:12:55;5.20;99.90
16732;DHT22;8484;50.904;9.192;2023-02-28T11:15:25;5.30;99.90
16732;DHT22;8484;50.904;9.192;2023-02-28T11:17:58;5.50;99.10
16732;DHT22;8484;50.904;9.192;2023-02-28T11:20:28;5.40;99.50
16732;DHT22;8484;50.904;9.192;2023-02-28T11:22:57;5.00;99.80
16732;DHT22;8484;50.904;9.192;2023-02-28T11:25:28;5.60;99.10
16732;DHT22;8484;50.904;9.192;2023-02-28T11:27:57;5.50;99.70
16732;DHT22;8484;50.904;9.192;2023-02-28T11:30:33;5.90;99.20
16732;DHT22;8484;50.904;9.192;2023-02-28T11:33:01;5.40;98.70
16732;DHT22;8484;50.904;9.192;2023-02-28T11:35:48;5.50;99.50
16732;DHT22;8484;50.904;9.192;2023-02-28T11:38:15;5.70;99.00
16732;DHT22;8484;50.904;9.192;2023-02-28T11:40:49;6.50;99.90
16732;DHT22;8484;50.904;9.192;2023-02-28T11:43:27;6.50;98.50
16732;DHT22;8484;50.904;9.192;2023-02-28T11:46:06;6.20;98.30
16732;DHT22;8484;50.904;9.192;2023-02-28T11:48:46;6.70;98.70
16732;DHT22;8484;50.904;9.192;2023-02-28T11:51:23;6.80;98.60
16732;DHT22;8484;50.904;9.192;2023-02-28T11:54:01;5.80;98.80
16732;DHT22;8484;50.904;9.192;2023-02-28T11:56:33;7.20;98.10
16732;DHT22;8484;50.904;9.192;2023-02-28T11:59:15;6.80;98.00
16732;DHT22;8484;50.904;9.192;2023-02-28T12:02:08;7.30;98.20
16732;DHT22;8484;50.904;9.192;2023-02-28T12:04:51;6.70;97.50
16732;DHT22;8484;50.904;9.192;2023-02-28T12:07:29;6.80;99.30
16732;DHT22;8484;50.904;9.192;2023-02-28T12:10:04;8.20;97.40
16732;DHT22;8484;50.904;9.192;2023-02-28T12:12:42;7.70;97.20
16732;DHT22;8484;50.904;9.192;2023-02-28T12:15:36;7.40;97.00
16732;DHT22;8484;50.904;9.192;2023-02-28T12:18:15;7.90;96.80
16732;DHT22;8484;50.904;9.192;2023-02-28T12:20:51;6.90;96.80
16732;DHT22;8484;50.904;9.192;2023-02-28T12:23:46;7.00;97.40
16732;DHT22;8484;50.904;9.192;2023-02-28T12:26:16;7.00;97.60
16732;DHT22;8484;50.904;9.192;2023-02-28T12:28:48;6.90;98.50
16732;DHT22;8484;50.904;9.192;2023-02-28T12:31:20;7.70;98.20
16732;DHT22;8484;50.904;9.192;2023-02-28T12:33:51;7.50;96.90
16732;DHT22;8484;50.904;9.192;2023-02-28T12:36:20;7.00;99.10
16732;DHT22;8484;50.904;9.192;2023-02-28T12:38:53;8.00;97.60
16732;DHT22;8484;50.904;9.192;2023-02-28T12:41:25;7.50;97.10
16732;DHT22;8484;50.904;9.192;2023-02-28T12:43:57;7.80;98.50
16732;DHT22;8484;50.904;9.192;2023-02-28T12:46:29;8.90;96.40
16732;DHT22;8484;50.904;9.192;2023-02-28T12:48:58;7.50;96.50
16732;DHT22;8484;50.904;9.192;2023-02-28T12:51:26;8.10;97.00
16732;DHT22;8484;50.904;9.192;2023-02-28T12:54:00;8.20;96.60
16732;DHT22;8484;50.904;9.192;2023-02-28T12:56:36;7.50;96.30
16732;DHT22;8484;50.904;9.192;2023-02-28T12:59:11;8.20;95.90
16732;DHT22;8484;50.904;9.192;2023-02-28T13:01:57;8.40;95.70
16732;DHT22;8484;50.904;9.192;2023-02-28T13:04:52;8.40;96.00
16732;DHT22;8484;50.904;9.192;2023-02-28T13:08:01;6.60;98.20
16732;DHT22;8484;50.904;9.192;2023-02-28T13:10:42;7.80;97.70
16732;DHT22;8484;50.904;9.192;2023-02-28T13:13:15;6.30;97.10
16732;DHT22;8484;50.904;9.192;2023-02-28T13:16:01;7.90;97.60
16732;DHT22;8484;50.904;9.192;2023-02-28T13:18:31;8.90;95.60
16732;DHT22;8484;50.904;9.192;2023-02-28T13:21:00;9.30;95.50
16732;DHT22;8484;50.904;9.192;2023-02-28T13:23:39;7.90;97.00
16732;DHT22;8484;50.904;9.192;2023-02-28T13:26:07;7.40;96.80
16732;DHT22;8484;50.904;9.192;2023-02-28T13:29:05;7.80;97.40
16732;DHT22;8484;50.904;9.192;2023-02-28T13:41:42;7.90;96.70
16732;DHT22;8484;50.904;9.192;2023-02-28T13:44:10;8.40;96.80
16732;DHT22;8484;50.904;9.192;2023-02-28T13:47:19;8.00;95.80
16732;DHT22;8484;50.904;9.192;2023-02-28T13:49:47;7.80;96.70
16732;DHT22;8484;50.904;9.192;2023-02-28T13:52:20;7.70;97.80
16732;DHT22;8484;50.904;9.192;2023-02-28T13:58:00;8.10;95.50
16732;DHT22;8484;50.904;9.192;2023-02-28T14:00:36;8.20;96.60
16732;DHT22;8484;50.904;9.192;2023-02-28T14:03:28;7.70;97.60
16732;DHT22;8484;50.904;9.192;2023-02-28T14:06:10;7.50;97.70
16732;DHT22;8484;50.904;9.192;2023-02-28T14:08:47;8.00;96.50
16732;DHT22;8484;50.904;9.192;2023-02-28T14:11:34;7.30;97.10
16732;DHT22;8484;50.904;9.192;2023-02-28T14:14:05;7.40;96.90
16732;DHT22;8484;50.904;9.192;2023-02-28T14:16:38;7.50;97.50
16732;DHT22;8484;50.904;9.192;2023-02-28T14:19:12;7.50;97.90
16732;DHT22;8484;50.904;9.192;2023-02-28T14:21:46;7.30;98.00
16732;DHT22;8484;50.904;9.192;2023-02-28T14:27:24;6.80;98.20
16732;DHT22;8484;50.904;9.192;2023-02-28T14:30:16;6.90;97.90
16732;DHT22;8484;50.904;9.192;2023-02-28T14:32:54;6.90;98.30
16732;DHT22;8484;50.904;9.192;2023-02-28T14:35:45;6.90;97.40
16732;DHT22;8484;50.904;9.192;2023-02-28T14:38:18;6.90;98.40
16732;DHT22;8484;50.904;9.192;2023-02-28T14:40:47;6.70;97.80
16732;DHT22;8484;50.904;9.192;2023-02-28T14:43:21;6.60;98.90
16732;DHT22;8484;50.904;9.192;2023-02-28T14:45:52;6.30;98.70
16732;DHT22;8484;50.904;9.192;2023-02-28T14:48:20;6.30;98.70
16732;DHT22;8484;50.904;9.192;2023-02-28T14:50:49;6.20;98.90
16732;DHT22;8484;50.904;9.192;2023-02-28T14:53:19;5.90;99.10
16732;DHT22;8484;50.904;9.192;2023-02-28T14:55:48;6.10;99.10
16732;DHT22;8484;50.904;9.192;2023-02-28T14:58:22;5.70;99.10
16732;DHT22;8484;50.904;9.192;2023-02-28T15:00:53;5.60;99.50
16732;DHT22;8484;50.904;9.192;2023-02-28T15:03:21;5.50;98.00
16732;DHT22;8484;50.904;9.192;2023-02-28T15:05:52;5.60;99.00
16732;DHT22;8484;50.904;9.192;2023-02-28T15:08:19;5.90;99.70
16732;DHT22;8484;50.904;9.192;2023-02-28T15:10:52;6.10;98.60
16732;DHT22;8484;50.904;9.192;2023-02-28T15:13:20;5.80;99.50
16732;DHT22;8484;50.904;9.192;2023-02-28T15:15:52;5.50;99.20
16732;DHT22;8484;50.904;9.192;2023-02-28T15:18:29;5.40;99.70
16732;DHT22;8484;50.904;9.192;2023-02-28T15:21:00;5.30;99.30
16732;DHT22;8484;50.904;9.192;2023-02-28T15:23:29;5.20;99.50
16732;DHT22;8484;50.904;9.192;2023-02-28T15:25:56;4.90;99.70
16732;DHT22;8484;50.904;9.192;2023-02-28T15:28:24;5.00;99.90
16732;DHT22;8484;50.904;9.192;2023-02-28T15:30:55;4.90;99.90
16732;DHT22;8484;50.904;9.192;2023-02-28T15:33:24;4.80;99.90
16732;DHT22;8484;50.904;9.192;2023-02-28T15:36:02;4.80;99.90
16732;DHT22;8484;50.904;9.192;2023-02-28T15:38:29;4.80;99.90
16732;DHT22;8484;50.904;9.192;2023-02-28T15:40:59;4.50;99.90
16732;DHT22;8484;50.904;9.192;2023-02-28T15:43:27;4.50;99.90
16732;DHT22;8484;50.904;9.192;2023-02-28T15:46:02;4.40;99.90
16732;DHT22;8484;50.904;9.192;2023-02-28T15:48:31;4.20;99.90
16732;DHT22;8484;50.904;9.192;2023-02-28T15:51:02;4.20;99.90
16732;DHT22;8484;50.904;9.192;2023-02-28T15:53:35;4.10;99.90
16732;DHT22;8484;50.904;9.192;2023-02-28T15:56:05;4.10;99.90
16732;DHT22;8484;50.904;9.192;2023-02-28T15:58:35;4.10;99.90
16732;DHT22;8484;50.904;9.192;2023-02-28T16:01:08;4.00;99.90
16732;DHT22;8484;50.904;9.192;2023-02-28T16:03:45;3.90;99.90
16732;DHT22;8484;50.904;9.192;2023-02-28T16:06:38;3.90;99.90
16732;DHT22;8484;50.904;9.192;2023-02-28T16:09:10;3.70;99.90
16732;DHT22;8484;50.904;9.192;2023-02-28T16:11:39;3.70;99.90
16732;DHT22;8484;50.904;9.192;2023-02-28T16:14:13;3.60;99.90
16732;DHT22;8484;50.904;9.192;2023-02-28T16:16:44;3.50;99.90
16732;DHT22;8484;50.904;9.192;2023-02-28T16:19:11;3.30;99.90
16732;DHT22;8484;50.904;9.192;2023-02-28T16:21:38;3.30;99.90
16732;DHT22;8484;50.904;9.192;2023-02-28T16:24:05;3.30;99.90
16732;DHT22;8484;50.904;9.192;2023-02-28T16:26:32;3.30;99.90
16732;DHT22;8484;50.904;9.192;2023-02-28T16:29:00;3.20;99.90
16732;DHT22;8484;50.904;9.192;2023-02-28T16:31:28;3.20;99.90
16732;DHT22;8484;50.904;9.192;2023-02-28T16:33:56;3.10;99.90
16732;DHT22;8484;50.904;9.192;2023-02-28T16:36:24;3.00;99.90
16732;DHT22;8484;50.904;9.192;2023-02-28T16:38:51;3.00;99.90